sensor_id;sensor_type;location;lat;lon;timestamp;P1;durP1;ratioP1;P2;durP2;ratioP2
48363;SDS011;34170;54.364;18.582;2023-07-08T00:00:51;4.22;;;1.92;;
48363;SDS011;34170;54.364;18.582;2023-07-08T00:03:39;6.53;;;2.88;;
48363;SDS011;34170;54.364;18.582;2023-07-08T00:06:17;4.88;;;2.60;;
48363;SDS011;34170;54.364;18.582;2023-07-08T00:08:49;4.07;;;1.95;;
48363;SDS011;34170;54.364;18.582;2023-07-08T00:11:17;4.40;;;2.10;;
48363;SDS011;34170;54.364;18.582;2023-07-08T00:13:45;4.85;;;2.22;;
48363;SDS011;34170;54.364;18.582;2023-07-08T00:16:17;4.32;;;1.85;;
48363;SDS011;34170;54.364;18.582;2023-07-08T00:18:46;5.15;;;2.30;;
48363;SDS011;34170;54.364;18.582;2023-07-08T00:21:16;4.53;;;2.13;;
48363;SDS011;34170;54.364;18.582;2023-07-08T00:23:45;9.73;;;2.55;;
48363;SDS011;34170;54.364;18.582;2023-07-08T00:26:31;4.40;;;1.80;;
48363;SDS011;34170;54.364;18.582;2023-07-08T00:28:59;3.97;;;2.28;;
48363;SDS011;34170;54.364;18.582;2023-07-08T00:31:27;5.32;;;2.08;;
48363;SDS011;34170;54.364;18.582;2023-07-08T00:33:56;3.92;;;2.25;;
48363;SDS011;34170;54.364;18.582;2023-07-08T00:36:25;3.75;;;1.80;;
48363;SDS011;34170;54.364;18.582;2023-07-08T00:38:55;3.88;;;1.98;;
48363;SDS011;34170;54.364;18.582;2023-07-08T00:41:36;6.30;;;2.25;;
48363;SDS011;34170;54.364;18.582;2023-07-08T00:44:10;4.28;;;1.83;;
48363;SDS011;34170;54.364;18.582;2023-07-08T00:49:27;10.90;;;2.35;;
48363;SDS011;34170;54.364;18.582;2023-07-08T00:52:23;3.42;;;2.35;;
48363;SDS011;34170;54.364;18.582;2023-07-08T00:54:54;4.82;;;2.00;;
48363;SDS011;34170;54.364;18.582;2023-07-08T00:57:33;4.30;;;1.70;;
48363;SDS011;34170;54.364;18.582;2023-07-08T01:00:06;4.57;;;2.40;;
48363;SDS011;34170;54.364;18.582;2023-07-08T01:05:10;4.25;;;1.98;;
48363;SDS011;34170;54.364;18.582;2023-07-08T01:07:48;3.88;;;1.90;;
48363;SDS011;34170;54.364;18.582;2023-07-08T01:10:22;3.10;;;1.88;;
48363;SDS011;34170;54.364;18.582;2023-07-08T01:12:54;4.38;;;1.90;;
48363;SDS011;34170;54.364;18.582;2023-07-08T01:15:30;3.55;;;1.95;;
48363;SDS011;34170;54.364;18.582;2023-07-08T01:18:04;4.85;;;1.80;;
48363;SDS011;34170;54.364;18.582;2023-07-08T01:20:32;5.25;;;2.00;;
48363;SDS011;34170;54.364;18.582;2023-07-08T01:23:00;3.72;;;1.90;;
48363;SDS011;34170;54.364;18.582;2023-07-08T01:25:28;4.55;;;1.85;;
48363;SDS011;34170;54.364;18.582;2023-07-08T01:27:57;3.15;;;1.83;;
48363;SDS011;34170;54.364;18.582;2023-07-08T01:30:26;4.45;;;2.22;;
48363;SDS011;34170;54.364;18.582;2023-07-08T01:32:59;4.55;;;2.50;;
48363;SDS011;34170;54.364;18.582;2023-07-08T01:35:31;4.25;;;1.52;;
48363;SDS011;34170;54.364;18.582;2023-07-08T01:38:00;6.47;;;4.38;;
48363;SDS011;34170;54.364;18.582;2023-07-08T01:40:32;6.32;;;2.10;;
48363;SDS011;34170;54.364;18.582;2023-07-08T01:43:01;3.83;;;1.97;;
48363;SDS011;34170;54.364;18.582;2023-07-08T01:45:37;3.63;;;2.03;;
48363;SDS011;34170;54.364;18.582;2023-07-08T01:50:37;4.10;;;2.22;;
48363;SDS011;34170;54.364;18.582;2023-07-08T01:53:35;3.35;;;1.73;;
48363;SDS011;34170;54.364;18.582;2023-07-08T01:56:04;2.35;;;1.67;;
48363;SDS011;34170;54.364;18.582;2023-07-08T01:58:33;4.25;;;1.70;;
48363;SDS011;34170;54.364;18.582;2023-07-08T02:01:02;3.53;;;1.40;;
48363;SDS011;34170;54.364;18.582;2023-07-08T02:03:29;4.38;;;1.33;;
48363;SDS011;34170;54.364;18.582;2023-07-08T02:05:58;2.50;;;1.23;;
48363;SDS011;34170;54.364;18.582;2023-07-08T02:08:25;3.58;;;1.60;;
48363;SDS011;34170;54.364;18.582;2023-07-08T02:10:57;3.97;;;1.70;;
48363;SDS011;34170;54.364;18.582;2023-07-08T02:13:26;2.83;;;1.40;;
48363;SDS011;34170;54.364;18.582;2023-07-08T02:15:54;2.63;;;1.17;;
48363;SDS011;34170;54.364;18.582;2023-07-08T02:18:21;2.55;;;1.05;;
48363;SDS011;34170;54.364;18.582;2023-07-08T02:20:52;1.98;;;1.40;;
48363;SDS011;34170;54.364;18.582;2023-07-08T02:23:19;3.75;;;0.95;;
48363;SDS011;34170;54.364;18.582;2023-07-08T02:25:54;4.38;;;1.30;;
48363;SDS011;34170;54.364;18.582;2023-07-08T02:28:23;4.50;;;1.17;;
48363;SDS011;34170;54.364;18.582;2023-07-08T02:30:51;2.55;;;1.20;;
48363;SDS011;34170;54.364;18.582;2023-07-08T02:33:19;2.35;;;1.45;;
48363;SDS011;34170;54.364;18.582;2023-07-08T02:35:46;3.55;;;1.30;;
48363;SDS011;34170;54.364;18.582;2023-07-08T02:38:14;1.95;;;1.27;;
48363;SDS011;34170;54.364;18.582;2023-07-08T02:40:42;7.15;;;1.42;;
48363;SDS011;34170;54.364;18.582;2023-07-08T02:43:09;3.00;;;1.38;;
48363;SDS011;34170;54.364;18.582;2023-07-08T02:45:38;2.85;;;1.40;;
48363;SDS011;34170;54.364;18.582;2023-07-08T02:48:06;4.00;;;1.73;;
48363;SDS011;34170;54.364;18.582;2023-07-08T02:50:33;2.17;;;1.30;;
48363;SDS011;34170;54.364;18.582;2023-07-08T02:53:01;2.33;;;1.20;;
48363;SDS011;34170;54.364;18.582;2023-07-08T02:55:28;2.53;;;1.10;;
48363;SDS011;34170;54.364;18.582;2023-07-08T02:57:55;2.13;;;1.27;;
48363;SDS011;34170;54.364;18.582;2023-07-08T03:00:23;3.10;;;1.00;;
48363;SDS011;34170;54.364;18.582;2023-07-08T03:02:51;2.40;;;1.45;;
48363;SDS011;34170;54.364;18.582;2023-07-08T03:05:19;4.35;;;2.00;;
48363;SDS011;34170;54.364;18.582;2023-07-08T03:07:46;2.60;;;1.63;;
48363;SDS011;34170;54.364;18.582;2023-07-08T03:10:14;3.65;;;1.70;;
48363;SDS011;34170;54.364;18.582;2023-07-08T03:12:42;2.65;;;1.17;;
48363;SDS011;34170;54.364;18.582;2023-07-08T03:15:10;5.05;;;1.73;;
48363;SDS011;34170;54.364;18.582;2023-07-08T03:17:37;2.05;;;1.30;;
48363;SDS011;34170;54.364;18.582;2023-07-08T03:20:06;3.70;;;1.58;;
48363;SDS011;34170;54.364;18.582;2023-07-08T03:22:34;3.33;;;1.58;;
48363;SDS011;34170;54.364;18.582;2023-07-08T03:25:02;2.50;;;1.20;;
48363;SDS011;34170;54.364;18.582;2023-07-08T03:27:30;1.65;;;1.17;;
48363;SDS011;34170;54.364;18.582;2023-07-08T03:29:58;2.95;;;1.17;;
48363;SDS011;34170;54.364;18.582;2023-07-08T03:32:25;4.88;;;1.52;;
48363;SDS011;34170;54.364;18.582;2023-07-08T03:34:53;3.05;;;1.77;;
48363;SDS011;34170;54.364;18.582;2023-07-08T03:37:21;4.05;;;1.52;;
48363;SDS011;34170;54.364;18.582;2023-07-08T03:39:49;8.27;;;1.75;;
48363;SDS011;34170;54.364;18.582;2023-07-08T03:42:17;2.10;;;1.17;;
48363;SDS011;34170;54.364;18.582;2023-07-08T03:44:44;2.03;;;1.30;;
48363;SDS011;34170;54.364;18.582;2023-07-08T03:47:12;2.00;;;1.48;;
48363;SDS011;34170;54.364;18.582;2023-07-08T03:49:40;2.05;;;1.50;;
48363;SDS011;34170;54.364;18.582;2023-07-08T03:52:07;2.28;;;1.13;;
48363;SDS011;34170;54.364;18.582;2023-07-08T03:54:43;2.03;;;1.40;;
48363;SDS011;34170;54.364;18.582;2023-07-08T03:57:11;4.68;;;1.20;;
48363;SDS011;34170;54.364;18.582;2023-07-08T03:59:40;2.78;;;1.20;;
48363;SDS011;34170;54.364;18.582;2023-07-08T04:02:09;4.15;;;1.58;;
48363;SDS011;34170;54.364;18.582;2023-07-08T04:04:38;4.50;;;1.33;;
48363;SDS011;34170;54.364;18.582;2023-07-08T04:07:06;4.03;;;1.33;;
48363;SDS011;34170;54.364;18.582;2023-07-08T04:09:34;1.95;;;1.30;;
48363;SDS011;34170;54.364;18.582;2023-07-08T04:12:02;2.30;;;1.25;;
48363;SDS011;34170;54.364;18.582;2023-07-08T04:14:30;4.05;;;1.40;;
48363;SDS011;34170;54.364;18.582;2023-07-08T04:16:57;3.50;;;1.33;;
48363;SDS011;34170;54.364;18.582;2023-07-08T04:19:26;6.05;;;1.65;;
48363;SDS011;34170;54.364;18.582;2023-07-08T04:21:54;2.90;;;1.20;;
48363;SDS011;34170;54.364;18.582;2023-07-08T04:24:22;3.33;;;1.58;;
48363;SDS011;34170;54.364;18.582;2023-07-08T04:26:49;3.28;;;1.15;;
48363;SDS011;34170;54.364;18.582;2023-07-08T04:29:18;3.30;;;1.10;;
48363;SDS011;34170;54.364;18.582;2023-07-08T04:31:48;3.25;;;1.17;;
48363;SDS011;34170;54.364;18.582;2023-07-08T04:34:15;2.05;;;0.98;;
48363;SDS011;34170;54.364;18.582;2023-07-08T04:36:43;1.92;;;1.00;;
48363;SDS011;34170;54.364;18.582;2023-07-08T04:39:11;3.60;;;1.40;;
48363;SDS011;34170;54.364;18.582;2023-07-08T04:41:40;3.00;;;1.42;;
48363;SDS011;34170;54.364;18.582;2023-07-08T04:44:12;3.08;;;0.95;;
48363;SDS011;34170;54.364;18.582;2023-07-08T04:46:41;2.92;;;1.30;;
48363;SDS011;34170;54.364;18.582;2023-07-08T04:49:09;2.03;;;1.27;;
48363;SDS011;34170;54.364;18.582;2023-07-08T04:51:37;1.70;;;1.10;;
48363;SDS011;34170;54.364;18.582;2023-07-08T04:54:06;2.03;;;0.90;;
48363;SDS011;34170;54.364;18.582;2023-07-08T04:56:45;1.83;;;0.80;;
48363;SDS011;34170;54.364;18.582;2023-07-08T04:59:17;4.20;;;0.80;;
48363;SDS011;34170;54.364;18.582;2023-07-08T05:01:45;1.80;;;0.90;;
48363;SDS011;34170;54.364;18.582;2023-07-08T05:04:17;1.35;;;0.77;;
48363;SDS011;34170;54.364;18.582;2023-07-08T05:06:46;2.22;;;1.20;;
48363;SDS011;34170;54.364;18.582;2023-07-08T05:09:14;2.28;;;0.80;;
48363;SDS011;34170;54.364;18.582;2023-07-08T05:11:43;2.75;;;1.00;;
48363;SDS011;34170;54.364;18.582;2023-07-08T05:14:12;4.00;;;1.27;;
48363;SDS011;34170;54.364;18.582;2023-07-08T05:16:40;1.52;;;0.70;;
48363;SDS011;34170;54.364;18.582;2023-07-08T05:19:08;1.98;;;0.90;;
48363;SDS011;34170;54.364;18.582;2023-07-08T05:21:37;1.30;;;0.82;;
48363;SDS011;34170;54.364;18.582;2023-07-08T05:24:05;1.77;;;0.82;;
48363;SDS011;34170;54.364;18.582;2023-07-08T05:26:33;3.05;;;1.08;;
48363;SDS011;34170;54.364;18.582;2023-07-08T05:29:01;3.83;;;1.30;;
48363;SDS011;34170;54.364;18.582;2023-07-08T05:31:28;2.15;;;0.65;;
48363;SDS011;34170;54.364;18.582;2023-07-08T05:34:00;1.98;;;0.65;;
48363;SDS011;34170;54.364;18.582;2023-07-08T05:36:27;5.45;;;1.52;;
48363;SDS011;34170;54.364;18.582;2023-07-08T05:38:56;2.08;;;1.08;;
48363;SDS011;34170;54.364;18.582;2023-07-08T05:41:23;2.00;;;0.80;;
48363;SDS011;34170;54.364;18.582;2023-07-08T05:43:51;2.80;;;0.93;;
48363;SDS011;34170;54.364;18.582;2023-07-08T05:46:18;1.90;;;0.90;;
48363;SDS011;34170;54.364;18.582;2023-07-08T05:48:46;2.40;;;0.90;;
48363;SDS011;34170;54.364;18.582;2023-07-08T05:51:14;2.40;;;1.20;;
48363;SDS011;34170;54.364;18.582;2023-07-08T05:53:42;2.83;;;0.90;;
48363;SDS011;34170;54.364;18.582;2023-07-08T05:56:09;2.72;;;1.00;;
48363;SDS011;34170;54.364;18.582;2023-07-08T05:58:37;1.77;;;0.88;;
48363;SDS011;34170;54.364;18.582;2023-07-08T06:01:04;1.23;;;0.98;;
48363;SDS011;34170;54.364;18.582;2023-07-08T06:03:33;2.97;;;0.88;;
48363;SDS011;34170;54.364;18.582;2023-07-08T06:06:00;1.25;;;0.95;;
48363;SDS011;34170;54.364;18.582;2023-07-08T06:08:29;3.38;;;1.05;;
48363;SDS011;34170;54.364;18.582;2023-07-08T06:10:56;2.90;;;0.95;;
48363;SDS011;34170;54.364;18.582;2023-07-08T06:13:24;2.13;;;1.20;;
48363;SDS011;34170;54.364;18.582;2023-07-08T06:15:52;2.78;;;1.13;;
48363;SDS011;34170;54.364;18.582;2023-07-08T06:18:19;4.00;;;1.05;;
48363;SDS011;34170;54.364;18.582;2023-07-08T06:20:54;3.10;;;1.02;;
48363;SDS011;34170;54.364;18.582;2023-07-08T06:23:24;4.35;;;1.10;;
48363;SDS011;34170;54.364;18.582;2023-07-08T06:25:51;1.92;;;1.05;;
48363;SDS011;34170;54.364;18.582;2023-07-08T06:28:19;2.58;;;1.10;;
48363;SDS011;34170;54.364;18.582;2023-07-08T06:30:47;1.90;;;1.00;;
48363;SDS011;34170;54.364;18.582;2023-07-08T06:33:15;4.60;;;1.30;;
48363;SDS011;34170;54.364;18.582;2023-07-08T06:35:43;1.95;;;0.80;;
48363;SDS011;34170;54.364;18.582;2023-07-08T06:38:11;4.40;;;1.25;;
48363;SDS011;34170;54.364;18.582;2023-07-08T06:40:39;2.70;;;1.27;;
48363;SDS011;34170;54.364;18.582;2023-07-08T06:43:07;1.95;;;0.77;;
48363;SDS011;34170;54.364;18.582;2023-07-08T06:45:40;2.15;;;1.00;;
48363;SDS011;34170;54.364;18.582;2023-07-08T06:48:08;1.83;;;0.70;;
48363;SDS011;34170;54.364;18.582;2023-07-08T06:50:35;2.42;;;0.90;;
48363;SDS011;34170;54.364;18.582;2023-07-08T06:53:03;2.35;;;0.90;;
48363;SDS011;34170;54.364;18.582;2023-07-08T06:55:30;5.03;;;1.33;;
48363;SDS011;34170;54.364;18.582;2023-07-08T06:57:58;2.92;;;1.00;;
48363;SDS011;34170;54.364;18.582;2023-07-08T07:00:25;3.90;;;1.00;;
48363;SDS011;34170;54.364;18.582;2023-07-08T07:02:53;4.65;;;0.98;;
48363;SDS011;34170;54.364;18.582;2023-07-08T07:05:20;2.15;;;1.02;;
48363;SDS011;34170;54.364;18.582;2023-07-08T07:07:49;3.05;;;1.60;;
48363;SDS011;34170;54.364;18.582;2023-07-08T07:10:17;6.95;;;1.60;;
48363;SDS011;34170;54.364;18.582;2023-07-08T07:12:44;2.33;;;0.90;;
48363;SDS011;34170;54.364;18.582;2023-07-08T07:15:12;2.38;;;1.20;;
48363;SDS011;34170;54.364;18.582;2023-07-08T07:17:39;4.63;;;1.15;;
48363;SDS011;34170;54.364;18.582;2023-07-08T07:20:07;2.92;;;1.10;;
48363;SDS011;34170;54.364;18.582;2023-07-08T07:22:35;1.27;;;0.85;;
48363;SDS011;34170;54.364;18.582;2023-07-08T07:25:03;1.48;;;1.10;;
48363;SDS011;34170;54.364;18.582;2023-07-08T07:27:31;2.55;;;1.17;;
48363;SDS011;34170;54.364;18.582;2023-07-08T07:29:59;2.35;;;1.00;;
48363;SDS011;34170;54.364;18.582;2023-07-08T07:32:27;3.47;;;1.00;;
48363;SDS011;34170;54.364;18.582;2023-07-08T07:34:56;3.38;;;1.40;;
48363;SDS011;34170;54.364;18.582;2023-07-08T07:37:25;2.53;;;1.55;;
48363;SDS011;34170;54.364;18.582;2023-07-08T07:39:53;2.15;;;1.33;;
48363;SDS011;34170;54.364;18.582;2023-07-08T07:42:20;1.88;;;1.17;;
48363;SDS011;34170;54.364;18.582;2023-07-08T07:44:48;2.28;;;1.35;;
48363;SDS011;34170;54.364;18.582;2023-07-08T07:47:15;2.22;;;1.08;;
48363;SDS011;34170;54.364;18.582;2023-07-08T07:49:43;1.35;;;0.95;;
48363;SDS011;34170;54.364;18.582;2023-07-08T07:52:10;3.78;;;1.55;;
48363;SDS011;34170;54.364;18.582;2023-07-08T07:54:38;4.60;;;1.55;;
48363;SDS011;34170;54.364;18.582;2023-07-08T07:57:06;2.42;;;1.30;;
48363;SDS011;34170;54.364;18.582;2023-07-08T07:59:34;3.38;;;1.50;;
48363;SDS011;34170;54.364;18.582;2023-07-08T08:02:02;4.22;;;1.30;;
48363;SDS011;34170;54.364;18.582;2023-07-08T08:04:29;6.75;;;1.52;;
48363;SDS011;34170;54.364;18.582;2023-07-08T08:06:57;4.35;;;1.33;;
48363;SDS011;34170;54.364;18.582;2023-07-08T08:09:24;3.90;;;1.60;;
48363;SDS011;34170;54.364;18.582;2023-07-08T08:11:52;6.13;;;1.50;;
48363;SDS011;34170;54.364;18.582;2023-07-08T08:14:19;3.67;;;1.83;;
48363;SDS011;34170;54.364;18.582;2023-07-08T08:16:47;5.95;;;1.73;;
48363;SDS011;34170;54.364;18.582;2023-07-08T08:19:15;1.98;;;1.50;;
48363;SDS011;34170;54.364;18.582;2023-07-08T08:21:42;3.10;;;1.45;;
48363;SDS011;34170;54.364;18.582;2023-07-08T08:24:09;7.25;;;1.92;;
48363;SDS011;34170;54.364;18.582;2023-07-08T08:26:37;4.13;;;1.73;;
48363;SDS011;34170;54.364;18.582;2023-07-08T08:29:04;5.00;;;2.15;;
48363;SDS011;34170;54.364;18.582;2023-07-08T08:31:32;2.80;;;1.50;;
48363;SDS011;34170;54.364;18.582;2023-07-08T08:33:59;4.70;;;1.35;;
48363;SDS011;34170;54.364;18.582;2023-07-08T08:36:27;5.53;;;1.63;;
48363;SDS011;34170;54.364;18.582;2023-07-08T08:38:54;2.10;;;1.05;;
48363;SDS011;34170;54.364;18.582;2023-07-08T08:41:33;4.45;;;1.67;;
48363;SDS011;34170;54.364;18.582;2023-07-08T08:44:02;3.72;;;1.70;;
48363;SDS011;34170;54.364;18.582;2023-07-08T08:49:37;1.77;;;1.35;;
48363;SDS011;34170;54.364;18.582;2023-07-08T08:52:10;4.80;;;1.60;;
48363;SDS011;34170;54.364;18.582;2023-07-08T08:54:39;4.00;;;1.50;;
48363;SDS011;34170;54.364;18.582;2023-07-08T09:00:02;2.42;;;1.02;;
48363;SDS011;34170;54.364;18.582;2023-07-08T09:02:39;3.63;;;1.17;;
48363;SDS011;34170;54.364;18.582;2023-07-08T09:05:15;1.42;;;1.15;;
48363;SDS011;34170;54.364;18.582;2023-07-08T09:10:27;3.17;;;1.35;;
48363;SDS011;34170;54.364;18.582;2023-07-08T09:13:08;4.00;;;1.17;;
48363;SDS011;34170;54.364;18.582;2023-07-08T09:15:44;2.45;;;1.27;;
48363;SDS011;34170;54.364;18.582;2023-07-08T09:18:15;2.10;;;1.20;;
48363;SDS011;34170;54.364;18.582;2023-07-08T09:20:49;4.32;;;1.60;;
48363;SDS011;34170;54.364;18.582;2023-07-08T09:23:23;5.43;;;1.40;;
48363;SDS011;34170;54.364;18.582;2023-07-08T09:25:58;3.90;;;1.40;;
48363;SDS011;34170;54.364;18.582;2023-07-08T09:28:41;6.63;;;1.60;;
48363;SDS011;34170;54.364;18.582;2023-07-08T09:31:18;3.33;;;1.35;;
48363;SDS011;34170;54.364;18.582;2023-07-08T09:36:46;4.25;;;1.65;;
48363;SDS011;34170;54.364;18.582;2023-07-08T09:39:15;2.65;;;1.30;;
48363;SDS011;34170;54.364;18.582;2023-07-08T09:41:45;4.28;;;1.63;;
48363;SDS011;34170;54.364;18.582;2023-07-08T09:44:19;2.25;;;1.45;;
48363;SDS011;34170;54.364;18.582;2023-07-08T09:46:57;4.05;;;1.67;;
48363;SDS011;34170;54.364;18.582;2023-07-08T09:49:27;6.45;;;2.20;;
48363;SDS011;34170;54.364;18.582;2023-07-08T09:52:02;3.08;;;1.80;;
48363;SDS011;34170;54.364;18.582;2023-07-08T09:54:31;2.78;;;1.83;;
48363;SDS011;34170;54.364;18.582;2023-07-08T09:57:02;11.10;;;2.88;;
48363;SDS011;34170;54.364;18.582;2023-07-08T09:59:39;7.13;;;2.53;;
48363;SDS011;34170;54.364;18.582;2023-07-08T10:03:01;3.28;;;1.75;;
48363;SDS011;34170;54.364;18.582;2023-07-08T10:05:27;3.03;;;1.80;;
48363;SDS011;34170;54.364;18.582;2023-07-08T10:08:00;7.07;;;2.80;;
48363;SDS011;34170;54.364;18.582;2023-07-08T10:13:10;4.10;;;2.25;;
48363;SDS011;34170;54.364;18.582;2023-07-08T10:16:13;4.38;;;2.38;;
48363;SDS011;34170;54.364;18.582;2023-07-08T10:18:55;4.60;;;2.15;;
48363;SDS011;34170;54.364;18.582;2023-07-08T10:27:02;4.80;;;2.08;;
48363;SDS011;34170;54.364;18.582;2023-07-08T10:29:52;4.95;;;2.13;;
48363;SDS011;34170;54.364;18.582;2023-07-08T10:36:05;3.90;;;1.90;;
48363;SDS011;34170;54.364;18.582;2023-07-08T10:41:19;4.90;;;2.20;;
48363;SDS011;34170;54.364;18.582;2023-07-08T10:44:26;9.02;;;2.40;;
48363;SDS011;34170;54.364;18.582;2023-07-08T10:47:04;3.28;;;2.05;;
48363;SDS011;34170;54.364;18.582;2023-07-08T10:50:07;5.93;;;2.17;;
48363;SDS011;34170;54.364;18.582;2023-07-08T10:55:40;4.00;;;1.63;;
48363;SDS011;34170;54.364;18.582;2023-07-08T11:01:16;3.63;;;1.35;;
48363;SDS011;34170;54.364;18.582;2023-07-08T11:04:11;4.75;;;2.13;;
48363;SDS011;34170;54.364;18.582;2023-07-08T11:06:57;2.72;;;1.38;;
48363;SDS011;34170;54.364;18.582;2023-07-08T11:09:42;5.22;;;1.40;;
48363;SDS011;34170;54.364;18.582;2023-07-08T11:12:23;2.38;;;1.25;;
48363;SDS011;34170;54.364;18.582;2023-07-08T11:17:35;3.80;;;1.58;;
48363;SDS011;34170;54.364;18.582;2023-07-08T11:20:14;4.13;;;1.35;;
48363;SDS011;34170;54.364;18.582;2023-07-08T11:22:49;2.00;;;1.00;;
48363;SDS011;34170;54.364;18.582;2023-07-08T11:25:21;1.65;;;1.05;;
48363;SDS011;34170;54.364;18.582;2023-07-08T11:27:55;1.50;;;0.80;;
48363;SDS011;34170;54.364;18.582;2023-07-08T11:30:27;4.43;;;1.33;;
48363;SDS011;34170;54.364;18.582;2023-07-08T11:33:08;5.47;;;1.67;;
48363;SDS011;34170;54.364;18.582;2023-07-08T11:35:39;5.13;;;1.97;;
48363;SDS011;34170;54.364;18.582;2023-07-08T11:38:15;4.70;;;1.20;;
48363;SDS011;34170;54.364;18.582;2023-07-08T11:43:44;4.20;;;1.25;;
48363;SDS011;34170;54.364;18.582;2023-07-08T11:46:18;2.63;;;1.40;;
48363;SDS011;34170;54.364;18.582;2023-07-08T11:48:53;2.78;;;1.20;;
48363;SDS011;34170;54.364;18.582;2023-07-08T11:51:23;3.75;;;0.80;;
48363;SDS011;34170;54.364;18.582;2023-07-08T11:54:01;3.63;;;1.30;;
48363;SDS011;34170;54.364;18.582;2023-07-08T11:59:29;5.32;;;1.50;;
48363;SDS011;34170;54.364;18.582;2023-07-08T12:02:03;2.92;;;0.60;;
48363;SDS011;34170;54.364;18.582;2023-07-08T12:04:53;1.73;;;0.75;;
48363;SDS011;34170;54.364;18.582;2023-07-08T12:07:31;1.88;;;0.75;;
48363;SDS011;34170;54.364;18.582;2023-07-08T12:10:16;2.55;;;0.77;;
48363;SDS011;34170;54.364;18.582;2023-07-08T12:12:57;1.33;;;0.63;;
48363;SDS011;34170;54.364;18.582;2023-07-08T12:15:26;2.00;;;0.70;;
48363;SDS011;34170;54.364;18.582;2023-07-08T12:17:57;2.97;;;0.60;;
48363;SDS011;34170;54.364;18.582;2023-07-08T12:20:33;1.55;;;0.30;;
48363;SDS011;34170;54.364;18.582;2023-07-08T12:23:03;0.82;;;0.50;;
48363;SDS011;34170;54.364;18.582;2023-07-08T12:25:36;5.03;;;0.50;;
48363;SDS011;34170;54.364;18.582;2023-07-08T12:28:03;1.80;;;0.40;;
48363;SDS011;34170;54.364;18.582;2023-07-08T12:30:32;2.00;;;0.63;;
48363;SDS011;34170;54.364;18.582;2023-07-08T12:33:00;1.30;;;0.57;;
48363;SDS011;34170;54.364;18.582;2023-07-08T12:35:29;1.75;;;0.30;;
48363;SDS011;34170;54.364;18.582;2023-07-08T12:37:59;2.13;;;0.30;;
48363;SDS011;34170;54.364;18.582;2023-07-08T12:40:36;1.20;;;0.50;;
48363;SDS011;34170;54.364;18.582;2023-07-08T12:43:04;0.90;;;0.28;;
48363;SDS011;34170;54.364;18.582;2023-07-08T12:45:39;0.85;;;0.30;;
48363;SDS011;34170;54.364;18.582;2023-07-08T12:48:08;2.55;;;0.35;;
48363;SDS011;34170;54.364;18.582;2023-07-08T12:50:36;1.17;;;0.38;;
48363;SDS011;34170;54.364;18.582;2023-07-08T12:53:04;1.90;;;0.65;;
48363;SDS011;34170;54.364;18.582;2023-07-08T12:55:37;2.40;;;0.60;;
48363;SDS011;34170;54.364;18.582;2023-07-08T12:58:13;3.15;;;0.30;;
48363;SDS011;34170;54.364;18.582;2023-07-08T13:00:45;0.88;;;0.40;;
48363;SDS011;34170;54.364;18.582;2023-07-08T13:03:15;1.45;;;0.43;;
48363;SDS011;34170;54.364;18.582;2023-07-08T13:05:46;1.98;;;0.40;;
48363;SDS011;34170;54.364;18.582;2023-07-08T13:08:17;1.63;;;0.22;;
48363;SDS011;34170;54.364;18.582;2023-07-08T13:10:47;1.83;;;0.40;;
48363;SDS011;34170;54.364;18.582;2023-07-08T13:13:19;1.23;;;0.40;;
48363;SDS011;34170;54.364;18.582;2023-07-08T13:18:28;1.73;;;0.40;;
48363;SDS011;34170;54.364;18.582;2023-07-08T13:20:59;1.27;;;0.22;;
48363;SDS011;34170;54.364;18.582;2023-07-08T13:23:28;1.27;;;0.38;;
48363;SDS011;34170;54.364;18.582;2023-07-08T13:25:56;3.00;;;0.40;;
48363;SDS011;34170;54.364;18.582;2023-07-08T13:28:36;1.05;;;0.20;;
48363;SDS011;34170;54.364;18.582;2023-07-08T13:31:19;2.13;;;0.70;;
48363;SDS011;34170;54.364;18.582;2023-07-08T13:33:52;0.85;;;0.40;;
48363;SDS011;34170;54.364;18.582;2023-07-08T13:36:23;1.92;;;0.43;;
48363;SDS011;34170;54.364;18.582;2023-07-08T13:39:08;2.70;;;0.50;;
48363;SDS011;34170;54.364;18.582;2023-07-08T13:41:45;3.67;;;0.55;;
48363;SDS011;34170;54.364;18.582;2023-07-08T13:44:13;1.90;;;0.50;;
48363;SDS011;34170;54.364;18.582;2023-07-08T13:49:22;1.55;;;0.35;;
48363;SDS011;34170;54.364;18.582;2023-07-08T13:52:20;2.20;;;0.45;;
48363;SDS011;34170;54.364;18.582;2023-07-08T13:54:49;2.75;;;0.43;;
48363;SDS011;34170;54.364;18.582;2023-07-08T13:57:29;0.70;;;0.30;;
48363;SDS011;34170;54.364;18.582;2023-07-08T14:00:00;1.92;;;0.68;;
48363;SDS011;34170;54.364;18.582;2023-07-08T14:02:38;2.45;;;0.50;;
48363;SDS011;34170;54.364;18.582;2023-07-08T14:05:10;2.13;;;0.57;;
48363;SDS011;34170;54.364;18.582;2023-07-08T14:07:41;1.95;;;0.60;;
48363;SDS011;34170;54.364;18.582;2023-07-08T14:10:12;4.03;;;0.30;;
48363;SDS011;34170;54.364;18.582;2023-07-08T14:12:40;1.17;;;0.43;;
48363;SDS011;34170;54.364;18.582;2023-07-08T14:15:08;0.98;;;0.35;;
48363;SDS011;34170;54.364;18.582;2023-07-08T14:17:37;1.48;;;0.50;;
48363;SDS011;34170;54.364;18.582;2023-07-08T14:20:11;1.60;;;0.38;;
48363;SDS011;34170;54.364;18.582;2023-07-08T14:22:43;2.63;;;0.43;;
48363;SDS011;34170;54.364;18.582;2023-07-08T14:25:13;0.70;;;0.22;;
48363;SDS011;34170;54.364;18.582;2023-07-08T14:27:42;2.53;;;0.65;;
48363;SDS011;34170;54.364;18.582;2023-07-08T14:30:10;0.82;;;0.40;;
48363;SDS011;34170;54.364;18.582;2023-07-08T14:32:38;1.65;;;0.60;;
48363;SDS011;34170;54.364;18.582;2023-07-08T14:37:46;0.93;;;0.30;;
48363;SDS011;34170;54.364;18.582;2023-07-08T14:42:42;1.23;;;0.40;;
48363;SDS011;34170;54.364;18.582;2023-07-08T14:45:09;3.40;;;0.65;;
48363;SDS011;34170;54.364;18.582;2023-07-08T14:47:38;1.13;;;0.40;;
48363;SDS011;34170;54.364;18.582;2023-07-08T14:50:14;1.80;;;0.47;;
48363;SDS011;34170;54.364;18.582;2023-07-08T14:52:43;2.35;;;0.50;;
48363;SDS011;34170;54.364;18.582;2023-07-08T14:55:10;2.00;;;0.40;;
48363;SDS011;34170;54.364;18.582;2023-07-08T14:57:45;2.10;;;0.80;;
48363;SDS011;34170;54.364;18.582;2023-07-08T15:00:16;2.25;;;0.60;;
48363;SDS011;34170;54.364;18.582;2023-07-08T15:02:46;2.20;;;0.50;;
48363;SDS011;34170;54.364;18.582;2023-07-08T15:05:23;1.92;;;0.60;;
48363;SDS011;34170;54.364;18.582;2023-07-08T15:07:54;1.88;;;0.60;;
48363;SDS011;34170;54.364;18.582;2023-07-08T15:10:24;2.58;;;0.50;;
48363;SDS011;34170;54.364;18.582;2023-07-08T15:12:56;2.10;;;0.60;;
48363;SDS011;34170;54.364;18.582;2023-07-08T15:15:27;2.70;;;1.10;;
48363;SDS011;34170;54.364;18.582;2023-07-08T15:17:56;3.38;;;0.60;;
48363;SDS011;34170;54.364;18.582;2023-07-08T15:20:25;4.68;;;1.10;;
48363;SDS011;34170;54.364;18.582;2023-07-08T15:22:53;3.33;;;0.80;;
48363;SDS011;34170;54.364;18.582;2023-07-08T15:25:21;2.63;;;0.60;;
48363;SDS011;34170;54.364;18.582;2023-07-08T15:27:50;2.25;;;0.70;;
48363;SDS011;34170;54.364;18.582;2023-07-08T15:30:21;2.25;;;0.80;;
48363;SDS011;34170;54.364;18.582;2023-07-08T15:32:50;3.30;;;0.63;;
48363;SDS011;34170;54.364;18.582;2023-07-08T15:35:28;5.72;;;0.93;;
48363;SDS011;34170;54.364;18.582;2023-07-08T15:37:57;3.22;;;0.75;;
48363;SDS011;34170;54.364;18.582;2023-07-08T15:40:26;2.55;;;0.93;;
48363;SDS011;34170;54.364;18.582;2023-07-08T15:42:57;1.73;;;0.88;;
48363;SDS011;34170;54.364;18.582;2023-07-08T15:45:36;4.20;;;0.85;;
48363;SDS011;34170;54.364;18.582;2023-07-08T15:48:05;3.08;;;0.88;;
48363;SDS011;34170;54.364;18.582;2023-07-08T15:50:32;2.65;;;0.70;;
48363;SDS011;34170;54.364;18.582;2023-07-08T15:53:00;3.45;;;0.93;;
48363;SDS011;34170;54.364;18.582;2023-07-08T15:55:29;2.20;;;0.63;;